BBC Polonia — V2EZ6 — position and weather

sailwx.info

Track history (hours):
 
Tides and Currents Weather Stations Pressure Air Temp Water Temp Dewpoint Dewpoint Depression Visibility Wind Speed Wind Dir Waves Ship Positions

BBC Polonia

Last reported at 2016-Jul-11 08:23 UTC. Time now 2016-Aug-29 07:14 UTC.
Position N 25°60' W 079°25'.
Warning: this ship's position is 48 days out of date.

Length 123 m; draft 5.7 m.

Type: Cargo ship. MMSI: 305614000.

Date/timePositionNaut miles runAvg speedWind from/ knotsBaromVisibWave heightAir tempDewpointWater temp
2016-Jul-11 08:23N 25°60' W 079°25'7 9.0
2016-Jul-11 07:33N 26°07' W 079°25'9 8.9
2016-Jul-11 06:34N 26°16' W 079°25'45 7.1
2016-Jul-11 00:10N 26°46' W 080°02'1 0.3
2016-Jul-10 21:25N 26°46' W 080°03'0 0.0
2016-Jul-10 19:04N 26°46' W 080°03'0 0.0
2016-Jul-10 15:31N 26°46' W 080°03'0 0.0
2016-Jul-10 09:31N 26°46' W 080°03'0 0.0
2016-Jul-10 08:19N 26°46' W 080°03'3 0.2
2016-Jul-09 17:33N 26°47' W 080°00'1010.2
2016-Jul-09 16:34N 26°47' W 079°49'1410.4
2016-Jul-09 15:14N 26°47' W 079°33'3710.1
2016-Jul-09 11:33N 26°10' W 079°29'1515.4
2016-Jul-09 10:33N 25°55' W 079°31'  
2016-Jul-06 04:33N 29°34' W 094°55'1110.7
2016-Jul-06 03:33N 29°43' W 095°01'7 6.7
2016-Jul-06 02:33N 29°44' W 095°09'5 1.6
2016-Jul-05 23:19N 29°43' W 095°15'0 0.0
2016-Jul-05 15:25N 29°43' W 095°15'0 0.0
2016-Jul-05 00:05N 29°43' W 095°15'0 0.6
2016-Jul-04 23:32N 29°43' W 095°14'5 4.6
2016-Jul-04 22:30N 29°44' W 095°09'5 5.4
2016-Jul-04 21:32N 29°44' W 095°03'9 9.3
2016-Jul-04 20:33N 29°36' W 094°57'1312.6
2016-Jul-04 19:31N 29°25' W 094°50'  
2016-Jul-01 21:33N 29°34' W 094°55'1111.3
2016-Jul-01 20:33N 29°43' W 095°01'7 6.6
2016-Jul-01 19:33N 29°44' W 095°09'5 5.1
2016-Jul-01 18:31N 29°43' W 095°15'0 0.0
2016-Jul-01 16:25N 29°43' W 095°15'0 0.0
2016-Jul-01 15:28N 29°43' W 095°15'0 0.0
2016-Jul-01 13:25N 29°43' W 095°15'0 0.0
2016-Jul-01 12:19N 29°43' W 095°15'0 0.0
2016-Jul-01 09:19N 29°43' W 095°15'  
Track history (hours):
 
Tides and Currents Weather Stations Pressure Air Temp Water Temp Dewpoint Dewpoint Depression Visibility Wind Speed Wind Dir Waves Ship Positions

BBC Polonia

Last reported at 2016-Jul-11 08:23 UTC. Time now 2016-Aug-29 07:14 UTC.
Position N 25°60' W 079°25'.
Warning: this ship's position is 48 days out of date.

Length 123 m; draft 5.7 m.

Type: Cargo ship. MMSI: 305614000.

Date/timePositionNaut miles runAvg speedWind from/ knotsBaromVisibWave heightAir tempDewpointWater temp
2016-Jul-11 08:23N 25°60' W 079°25'7 9.0
2016-Jul-11 07:33N 26°07' W 079°25'9 8.9
2016-Jul-11 06:34N 26°16' W 079°25'45 7.1
2016-Jul-11 00:10N 26°46' W 080°02'1 0.3
2016-Jul-10 21:25N 26°46' W 080°03'0 0.0
2016-Jul-10 19:04N 26°46' W 080°03'0 0.0
2016-Jul-10 15:31N 26°46' W 080°03'0 0.0
2016-Jul-10 09:31N 26°46' W 080°03'0 0.0
2016-Jul-10 08:19N 26°46' W 080°03'3 0.2
2016-Jul-09 17:33N 26°47' W 080°00'1010.2
2016-Jul-09 16:34N 26°47' W 079°49'1410.4
2016-Jul-09 15:14N 26°47' W 079°33'3710.1
2016-Jul-09 11:33N 26°10' W 079°29'1515.4
2016-Jul-09 10:33N 25°55' W 079°31'  
2016-Jul-06 04:33N 29°34' W 094°55'1110.7
2016-Jul-06 03:33N 29°43' W 095°01'7 6.7
2016-Jul-06 02:33N 29°44' W 095°09'5 1.6
2016-Jul-05 23:19N 29°43' W 095°15'0 0.0
2016-Jul-05 15:25N 29°43' W 095°15'0 0.0
2016-Jul-05 00:05N 29°43' W 095°15'0 0.6
2016-Jul-04 23:32N 29°43' W 095°14'5 4.6
2016-Jul-04 22:30N 29°44' W 095°09'5 5.4
2016-Jul-04 21:32N 29°44' W 095°03'9 9.3
2016-Jul-04 20:33N 29°36' W 094°57'1312.6
2016-Jul-04 19:31N 29°25' W 094°50'  
2016-Jul-01 21:33N 29°34' W 094°55'1111.3
2016-Jul-01 20:33N 29°43' W 095°01'7 6.6
2016-Jul-01 19:33N 29°44' W 095°09'5 5.1
2016-Jul-01 18:31N 29°43' W 095°15'0 0.0
2016-Jul-01 16:25N 29°43' W 095°15'0 0.0
2016-Jul-01 15:28N 29°43' W 095°15'0 0.0
2016-Jul-01 13:25N 29°43' W 095°15'0 0.0
2016-Jul-01 12:19N 29°43' W 095°15'0 0.0
2016-Jul-01 09:19N 29°43' W 095°15'  

Dump ship's entire track history